X  Close Metar Aviation Weather Data     KNUQ Moffett Federal Airfield
Temperature
52°F Temperature
46°F Dewpoint
82% Humidity



Wind
0 MPH
0 KM/H
0 M/S
0 KTS



Calm
N
Current Conditions

Haze Haze
Pressure 1011.52 (hPa) - 29.87 (inHg)
Visibility 5 (mile) - 8 (km)
Airport
Airport-code KNUQ

Location: Moffett Federal Airfield
Distance: 2 (mi)

Metar:
KNUQ 121414Z AUTO 00000KT 5SM HZ CLR 11/08 A2987 RMK AO2

Time: 12-10-2023 07:14 PST